INDIA METEOROLOGICAL DEPARTMENT, R.M.C. NEW DELHI
Dated:18 - 6 - 2019
METARS OF ALTERNATE AIRPORTS
Delhi      
VIDP 180430Z 30015G25KT 4000 HZ SCT030 FEW040CB BKN080 25/19 Q1005 TEMPO 34015G25KT 1500 TSRA=
Lucknow    
VILK 180430Z 30009KT 4000 HZ SCT020 SCT025 OVC090 31/19 Q1001 NOSIG=
Jaipur     
VIJP 180430Z 03005KT 1700 R27/1700 TSRA SCT025 FEW035CB OVC080 23/22 Q1006 BECMG 3000 -TSRA=
Ahmedabad  
VAAH 180430Z 21010G20KT 2500 DU SCT015 SCT020 BKN080 31/25 Q1002 NOSIG=
Udaipur    
VAUD 180430Z 22008KT 5000 HZ SCT030 SCT035 29/22 Q1005 NOSIG=
Mumbai     
VABB 180430Z 21013G23KT 4000 HZ SCT020 SCT025 31/26 Q1006 NOSIG=